createdAt,value
2022-11-04T00:01:43.272Z,20.40
2022-11-04T00:04:13.324Z,21.70
2022-11-04T00:06:41.471Z,20.70
2022-11-04T00:09:13.229Z,19.00
2022-11-04T00:11:59.559Z,17.40
2022-11-04T00:14:31.198Z,22.70
2022-11-04T00:17:17.879Z,26.00
2022-11-04T00:20:12.699Z,18.90
2022-11-04T00:23:00.946Z,19.70
2022-11-04T00:25:46.952Z,22.40
2022-11-04T00:28:36.691Z,22.80
2022-11-04T00:31:26.814Z,22.00
2022-11-04T00:33:57.542Z,21.30
2022-11-04T00:36:25.739Z,20.80
2022-11-04T00:38:53.565Z,20.90
2022-11-04T00:41:27.743Z,18.80
2022-11-04T00:44:04.857Z,17.80
2022-11-04T00:46:33.679Z,18.10
2022-11-04T00:49:01.552Z,20.30
2022-11-04T00:51:29.183Z,19.70
2022-11-04T00:53:57.746Z,21.60
2022-11-04T00:56:25.468Z,18.70
2022-11-04T00:58:52.994Z,17.10
2022-11-04T01:01:21.539Z,19.70
2022-11-04T01:03:51.932Z,18.90
2022-11-04T01:06:22.296Z,18.90
2022-11-04T01:09:00.826Z,19.10
2022-11-04T01:11:28.950Z,18.00
2022-11-04T01:13:57.950Z,21.10
2022-11-04T01:18:55.894Z,26.40
2022-11-04T01:21:23.458Z,23.90
2022-11-04T01:23:51.002Z,15.60
2022-11-04T01:26:22.902Z,16.80
2022-11-04T01:28:54.100Z,18.50
2022-11-04T01:31:26.262Z,18.60
2022-11-04T01:33:55.346Z,17.90
2022-11-04T01:36:24.069Z,17.20
2022-11-04T01:38:53.590Z,17.40
2022-11-04T01:41:27.402Z,18.30
2022-11-04T01:44:02.145Z,19.10
2022-11-04T01:46:53.496Z,20.00
2022-11-04T01:49:32.945Z,17.40
2022-11-04T01:52:14.420Z,18.20
2022-11-04T01:54:47.178Z,18.90
2022-11-04T01:57:24.740Z,18.10
2022-11-04T01:59:53.024Z,20.80
2022-11-04T02:02:25.592Z,16.20
2022-11-04T02:04:53.403Z,25.00
2022-11-04T02:07:21.369Z,16.20
2022-11-04T02:09:48.933Z,19.50
2022-11-04T02:12:35.051Z,15.10
2022-11-04T02:15:02.947Z,18.80
2022-11-04T02:17:48.526Z,22.20
2022-11-04T02:20:29.389Z,21.50
2022-11-04T02:23:40.953Z,23.90
2022-11-04T02:26:46.361Z,15.40
2022-11-04T02:29:25.792Z,17.60
2022-11-04T02:32:23.432Z,21.80
2022-11-04T02:35:17.277Z,18.00
2022-11-04T02:38:08.882Z,19.50
2022-11-04T02:40:51.694Z,21.90
2022-11-04T02:43:26.340Z,18.40
2022-11-04T02:46:05.091Z,16.90
2022-11-04T02:48:46.953Z,15.60
2022-11-04T02:51:39.397Z,16.90
2022-11-04T02:54:32.796Z,16.40
2022-11-04T02:57:03.980Z,20.40
2022-11-04T02:59:39.441Z,17.50
2022-11-04T03:02:13.233Z,14.80
2022-11-04T03:04:46.905Z,20.40
2022-11-04T03:07:21.472Z,15.90
2022-11-04T03:09:55.586Z,19.10
2022-11-04T03:12:29.689Z,21.00
2022-11-04T03:15:04.826Z,17.90
2022-11-04T03:17:56.762Z,19.10
2022-11-04T03:20:28.635Z,20.50
2022-11-04T03:22:59.461Z,21.10
2022-11-04T03:25:35.717Z,21.90
2022-11-04T03:28:21.199Z,18.40
2022-11-04T03:30:53.926Z,20.80
2022-11-04T03:33:26.969Z,20.80
2022-11-04T03:35:54.735Z,19.80
2022-11-04T03:38:22.814Z,23.10
2022-11-04T03:40:51.099Z,24.60
2022-11-04T03:43:27.211Z,16.60
2022-11-04T03:45:55.138Z,18.60
2022-11-04T03:48:23.887Z,20.20
2022-11-04T03:50:51.411Z,22.10
2022-11-04T03:53:27.296Z,20.20
2022-11-04T03:56:24.616Z,25.10
2022-11-04T03:59:03.958Z,19.60
2022-11-04T04:02:02.462Z,22.80
2022-11-04T04:04:39.553Z,23.30
2022-11-04T04:07:17.152Z,22.70
2022-11-04T04:10:30.066Z,22.50
2022-11-04T04:13:05.117Z,28.90
2022-11-04T04:16:07.124Z,21.70
2022-11-04T04:18:54.030Z,23.90
2022-11-04T04:21:44.730Z,20.20
2022-11-04T04:24:35.149Z,22.70
2022-11-04T04:27:22.155Z,26.90
2022-11-04T04:29:51.822Z,25.60
2022-11-04T04:32:23.875Z,28.00
2022-11-04T04:35:11.751Z,25.40
2022-11-04T04:37:41.542Z,23.20
2022-11-04T04:40:34.114Z,26.30
2022-11-04T04:43:21.697Z,28.40
2022-11-04T04:45:53.356Z,42.60
2022-11-04T04:48:20.998Z,34.40
2022-11-04T04:50:56.256Z,26.30
2022-11-04T04:53:23.907Z,25.80
2022-11-04T04:55:51.484Z,23.00
2022-11-04T04:58:19.120Z,25.20
2022-11-04T05:00:46.786Z,22.40
2022-11-04T05:03:14.412Z,21.60
2022-11-04T05:05:41.899Z,27.30
2022-11-04T05:08:09.715Z,24.10
2022-11-04T05:10:37.557Z,25.70
2022-11-04T05:13:23.738Z,24.40
2022-11-04T05:15:52.937Z,26.80
2022-11-04T05:18:20.522Z,24.20
2022-11-04T05:20:48.154Z,27.90
2022-11-04T05:23:15.844Z,30.90
2022-11-04T05:25:43.575Z,30.20
2022-11-04T05:28:11.521Z,24.00
2022-11-04T05:30:39.512Z,26.90
2022-11-04T05:33:07.453Z,21.70
2022-11-04T05:35:35.477Z,24.60
2022-11-04T05:38:03.126Z,24.00
2022-11-04T05:40:30.888Z,29.60
2022-11-04T05:42:59.939Z,29.00
2022-11-04T05:45:29.032Z,40.10
2022-11-04T05:48:04.939Z,36.90
2022-11-04T05:50:33.959Z,38.00
2022-11-04T05:53:01.574Z,27.10
2022-11-04T05:55:31.938Z,27.30
2022-11-04T05:57:59.524Z,30.60
2022-11-04T06:00:28.469Z,29.40
2022-11-04T06:02:58.929Z,31.40
2022-11-04T06:05:28.098Z,27.00
2022-11-04T06:07:56.342Z,46.90
2022-11-04T06:10:25.244Z,29.20
2022-11-04T06:12:53.636Z,34.20
2022-11-04T06:15:21.383Z,27.20
2022-11-04T06:17:49.173Z,32.70
2022-11-04T06:20:16.905Z,28.60
2022-11-04T06:22:44.616Z,26.30
2022-11-04T06:25:12.491Z,25.50
2022-11-04T06:27:40.824Z,26.50
2022-11-04T06:30:12.400Z,35.40
2022-11-04T06:32:42.090Z,27.00
2022-11-04T06:35:09.885Z,32.50
2022-11-04T06:37:37.422Z,31.60
2022-11-04T06:40:06.644Z,24.70
2022-11-04T06:42:34.274Z,25.40
2022-11-04T06:45:02.053Z,27.60
2022-11-04T06:47:29.835Z,21.30
2022-11-04T06:49:57.689Z,25.50
2022-11-04T06:52:25.445Z,21.70
2022-11-04T06:54:53.114Z,21.60
2022-11-04T06:57:21.083Z,22.60
2022-11-04T06:59:48.595Z,22.30
2022-11-04T07:02:16.339Z,22.10
2022-11-04T07:04:44.142Z,18.50
2022-11-04T07:07:12.191Z,20.00
2022-11-04T07:09:41.125Z,19.70
2022-11-04T07:12:08.945Z,19.00
2022-11-04T07:14:36.514Z,25.30
2022-11-04T07:17:04.230Z,22.60
2022-11-04T07:19:31.825Z,24.90
2022-11-04T07:21:59.631Z,25.60
2022-11-04T07:24:27.193Z,24.20
2022-11-04T07:26:55.843Z,22.80
2022-11-04T07:29:24.910Z,19.40
2022-11-04T07:31:52.632Z,25.00
2022-11-04T07:34:20.466Z,21.40
2022-11-04T07:36:48.229Z,21.30
2022-11-04T07:39:15.927Z,27.70
2022-11-04T07:41:46.767Z,25.30
2022-11-04T07:44:14.431Z,24.60
2022-11-04T07:46:42.264Z,20.80
2022-11-04T07:49:10.688Z,21.80
2022-11-04T07:51:38.310Z,18.50
2022-11-04T07:54:06.066Z,23.50
2022-11-04T07:56:34.740Z,20.50
2022-11-04T07:59:06.684Z,24.10
2022-11-04T08:04:02.291Z,23.60
2022-11-04T08:06:31.603Z,26.90
2022-11-04T08:09:00.678Z,27.00
2022-11-04T08:11:28.476Z,25.50
2022-11-04T08:14:00.965Z,22.20
2022-11-04T08:16:36.570Z,24.10
2022-11-04T08:19:07.176Z,22.70
2022-11-04T08:21:35.049Z,30.20
2022-11-04T08:24:03.830Z,31.80
2022-11-04T08:26:32.039Z,28.10
2022-11-04T08:29:02.087Z,26.40
2022-11-04T08:34:11.441Z,26.10
2022-11-04T08:36:40.465Z,20.60
2022-11-04T08:39:13.037Z,20.30
2022-11-04T08:41:45.119Z,28.70
2022-11-04T08:44:16.490Z,24.40
2022-11-04T08:46:46.100Z,27.40
2022-11-04T08:49:21.103Z,27.30
2022-11-04T08:51:56.929Z,28.90
2022-11-04T08:54:26.723Z,23.70
2022-11-04T08:56:55.554Z,24.90
2022-11-04T08:59:44.206Z,22.70
2022-11-04T09:02:33.665Z,27.30
2022-11-04T09:05:01.682Z,30.40
2022-11-04T09:07:29.812Z,23.90
2022-11-04T09:09:57.867Z,23.60
2022-11-04T09:12:28.171Z,24.40
2022-11-04T09:14:56.212Z,27.00
2022-11-04T09:17:24.925Z,24.40
2022-11-04T09:19:53.213Z,23.00
2022-11-04T09:22:21.207Z,27.50
2022-11-04T09:24:51.125Z,22.10
2022-11-04T09:27:19.507Z,24.60
2022-11-04T09:29:47.653Z,24.70
2022-11-04T09:32:15.930Z,20.50
2022-11-04T09:34:44.528Z,28.50
2022-11-04T09:37:18.027Z,24.30
2022-11-04T09:39:51.378Z,24.10
2022-11-04T09:42:52.792Z,27.10
2022-11-04T09:45:27.865Z,22.80
2022-11-04T09:48:08.073Z,24.10
2022-11-04T09:50:53.830Z,24.40
2022-11-04T09:53:43.760Z,26.30
2022-11-04T09:56:25.358Z,31.90
2022-11-04T09:58:54.109Z,28.90
2022-11-04T10:01:58.697Z,27.40
2022-11-04T10:04:37.049Z,30.30
2022-11-04T10:07:37.237Z,30.20
2022-11-04T10:10:41.569Z,32.50
2022-11-04T10:14:03.915Z,42.00
2022-11-04T10:17:34.106Z,31.70
2022-11-04T10:20:56.038Z,31.30
2022-11-04T10:24:15.229Z,27.10
2022-11-04T10:27:05.168Z,70.70
2022-11-04T10:29:55.912Z,42.70
2022-11-04T10:33:15.262Z,40.90
2022-11-04T10:36:05.882Z,35.40
2022-11-04T10:39:35.095Z,31.70
2022-11-04T10:42:51.806Z,33.40
2022-11-04T10:45:47.754Z,36.00
2022-11-04T10:48:33.206Z,30.50
2022-11-04T10:51:23.647Z,33.10
2022-11-04T10:54:13.791Z,34.60
2022-11-04T10:57:01.216Z,37.00
2022-11-04T10:59:58.520Z,34.70
2022-11-04T11:02:48.689Z,33.30
2022-11-04T11:05:28.413Z,38.20
2022-11-04T11:10:13.913Z,43.10
2022-11-04T11:12:06.927Z,39.30
2022-11-04T11:15:48.906Z,36.00
2022-11-04T11:18:28.248Z,35.90
2022-11-04T11:21:11.528Z,30.20
2022-11-04T11:23:57.231Z,38.00
2022-11-04T11:26:41.518Z,39.50
2022-11-04T11:29:21.378Z,28.20
2022-11-04T11:32:07.923Z,34.00
2022-11-04T11:34:38.743Z,32.60
2022-11-04T11:37:30.464Z,24.70
2022-11-04T11:40:05.511Z,27.20
2022-11-04T11:42:56.193Z,36.20
2022-11-04T11:45:59.224Z,28.60
2022-11-04T11:49:13.664Z,33.70
2022-11-04T11:52:05.562Z,27.80
2022-11-04T11:54:49.737Z,32.70
2022-11-04T12:46:19.048Z,27.30
2022-11-04T12:49:44.962Z,30.20
2022-11-04T13:07:20.477Z,33.00
2022-11-04T13:33:15.602Z,38.70
2022-11-04T13:36:26.907Z,30.70
2022-11-04T13:39:06.133Z,34.20
2022-11-04T13:41:53.657Z,31.70
2022-11-04T13:44:52.902Z,31.70
2022-11-04T13:48:22.429Z,31.70
2022-11-04T13:51:10.378Z,41.00
2022-11-04T13:53:58.045Z,31.30
2022-11-04T13:56:34.305Z,46.00
2022-11-04T13:59:24.275Z,31.70
2022-11-04T14:03:04.348Z,35.90
2022-11-04T14:06:17.615Z,44.60
2022-11-04T14:10:05.190Z,35.80
2022-11-04T14:13:35.079Z,34.60
2022-11-04T14:16:14.013Z,35.50
2022-11-04T14:18:46.008Z,31.00
2022-11-04T14:21:23.506Z,34.70
2022-11-04T14:24:16.249Z,32.30
2022-11-04T14:26:48.790Z,34.10
2022-11-04T14:29:18.825Z,44.30
2022-11-04T14:31:52.625Z,40.40
2022-11-04T14:34:36.752Z,41.80
2022-11-04T14:37:27.005Z,32.30
2022-11-04T14:40:01.743Z,33.00
2022-11-04T14:42:55.193Z,43.70
2022-11-04T14:45:27.111Z,40.00
2022-11-04T14:48:20.575Z,40.50
2022-11-04T14:50:56.146Z,39.30
2022-11-04T14:53:38.230Z,39.70
2022-11-04T14:59:33.458Z,46.30
2022-11-04T15:02:56.108Z,44.80
2022-11-04T15:05:32.168Z,41.90
2022-11-04T15:08:30.891Z,43.60
2022-11-04T15:11:17.694Z,43.30
2022-11-04T15:13:57.969Z,50.90
2022-11-04T15:16:30.538Z,51.20
2022-11-04T15:19:00.217Z,68.80
2022-11-04T15:21:29.514Z,63.80
2022-11-04T15:24:13.517Z,60.80
2022-11-04T15:26:43.983Z,50.50
2022-11-04T15:29:17.313Z,47.30
2022-11-04T15:32:05.540Z,41.50
2022-11-04T15:34:36.870Z,59.10
2022-11-04T15:37:14.283Z,55.80
2022-11-04T15:39:47.131Z,59.70
2022-11-04T15:42:46.031Z,65.90
2022-11-04T15:45:27.494Z,59.90
2022-11-04T15:48:38.142Z,52.80
2022-11-04T15:51:25.506Z,59.60
2022-11-04T15:54:05.502Z,64.30
2022-11-04T15:56:46.247Z,62.00
2022-11-04T15:59:20.432Z,67.80
2022-11-04T16:01:52.839Z,64.10
2022-11-04T16:04:38.198Z,71.10
2022-11-04T16:07:10.541Z,77.40
2022-11-04T16:09:56.564Z,60.40
2022-11-04T16:12:37.343Z,68.40
2022-11-04T16:15:27.619Z,66.90
2022-11-04T16:18:00.463Z,67.80
2022-11-04T16:20:31.594Z,57.20
2022-11-04T16:23:03.161Z,54.20
2022-11-04T16:25:42.548Z,51.90
2022-11-04T16:28:43.037Z,49.90
2022-11-04T16:31:41.447Z,52.60
2022-11-04T16:34:14.354Z,51.90
2022-11-04T16:36:44.458Z,51.50
2022-11-04T16:41:55.257Z,60.50
2022-11-04T16:50:30.284Z,65.90
2022-11-04T16:53:03.990Z,64.70
2022-11-04T16:55:41.892Z,64.60
2022-11-04T16:58:18.243Z,69.60
2022-11-04T17:01:05.128Z,62.70
2022-11-04T17:03:58.555Z,57.50
2022-11-04T17:06:27.556Z,71.40
2022-11-04T17:08:58.846Z,61.90
2022-11-04T17:11:30.471Z,68.80
2022-11-04T17:14:34.660Z,70.60
2022-11-04T17:17:31.858Z,62.80
2022-11-04T17:20:17.811Z,56.50
2022-11-04T17:22:51.142Z,64.20
2022-11-04T17:25:25.807Z,97.50
2022-11-04T17:27:55.541Z,65.10
2022-11-04T17:30:25.420Z,59.00
2022-11-04T17:32:54.417Z,66.20
2022-11-04T17:35:23.438Z,58.40
2022-11-04T17:37:54.541Z,52.90
2022-11-04T17:40:24.313Z,52.70
2022-11-04T17:43:12.734Z,55.40
2022-11-04T17:45:43.481Z,47.00
2022-11-04T17:48:14.404Z,56.00
2022-11-04T17:50:43.548Z,56.60
2022-11-04T17:53:22.291Z,62.10
2022-11-04T17:55:54.131Z,53.90
2022-11-04T17:58:26.901Z,60.50
2022-11-04T18:01:06.059Z,62.50
2022-11-04T18:03:46.421Z,53.10
2022-11-04T18:06:41.536Z,60.90
2022-11-04T18:09:24.870Z,60.60
2022-11-04T18:12:13.758Z,66.10
2022-11-04T18:14:48.369Z,63.50
2022-11-04T18:17:18.116Z,55.00
2022-11-04T18:19:53.673Z,58.50
2022-11-04T18:22:30.276Z,55.70
2022-11-04T18:25:07.628Z,58.30
2022-11-04T18:27:44.544Z,57.00
2022-11-04T18:30:58.686Z,61.80
2022-11-04T18:33:38.756Z,65.80
2022-11-04T18:36:16.021Z,62.90
2022-11-04T18:39:13.157Z,65.00
2022-11-04T18:41:46.223Z,65.30
2022-11-04T18:52:50.705Z,67.70
2022-11-04T18:55:44.562Z,60.60
2022-11-04T18:58:18.878Z,64.80
2022-11-04T19:01:09.132Z,59.90
2022-11-04T19:03:59.517Z,63.60
2022-11-04T19:06:43.526Z,66.10
2022-11-04T19:15:45.316Z,57.40
2022-11-04T19:19:02.169Z,55.50
2022-11-04T19:26:37.822Z,61.40
2022-11-04T19:34:41.728Z,63.30
2022-11-04T19:37:26.092Z,67.40
2022-11-04T19:40:12.836Z,63.80
2022-11-04T19:43:29.610Z,60.90
2022-11-04T19:46:20.335Z,59.00
2022-11-04T19:48:55.073Z,62.60
2022-11-04T19:51:36.742Z,60.50
2022-11-04T19:54:12.153Z,56.10
2022-11-04T19:57:11.263Z,54.50
2022-11-04T19:59:59.911Z,52.40
2022-11-04T20:02:59.223Z,50.30
2022-11-04T20:06:28.552Z,50.80
2022-11-04T20:09:21.479Z,51.90
2022-11-04T20:12:13.616Z,57.30
2022-11-04T20:17:37.756Z,48.20
2022-11-04T20:20:10.830Z,47.50
2022-11-04T20:22:41.562Z,49.00
2022-11-04T20:28:20.923Z,49.70
2022-11-04T20:30:53.601Z,55.40
2022-11-04T20:33:29.246Z,54.30
2022-11-04T20:36:30.619Z,57.30
2022-11-04T20:39:19.074Z,53.00
2022-11-04T20:42:01.466Z,52.30
2022-11-04T20:44:44.583Z,51.80
2022-11-04T20:47:18.388Z,53.30
2022-11-04T20:49:53.417Z,48.80
2022-11-04T20:52:26.726Z,52.30
2022-11-04T20:54:57.551Z,50.90
2022-11-04T20:57:28.299Z,53.90
2022-11-04T21:00:01.578Z,52.40
2022-11-04T21:02:34.823Z,56.10
2022-11-04T21:05:19.427Z,64.10
2022-11-04T21:07:53.432Z,54.40
2022-11-04T21:10:27.144Z,51.70
2022-11-04T21:12:57.058Z,52.30
2022-11-04T21:15:43.362Z,54.60
2022-11-04T21:18:16.750Z,54.60
2022-11-04T21:20:46.875Z,60.10
2022-11-04T21:23:22.762Z,52.20
2022-11-04T21:26:04.299Z,49.20
2022-11-04T21:28:34.229Z,52.70
2022-11-04T21:31:12.682Z,50.70
2022-11-04T21:33:47.566Z,50.10
2022-11-04T21:36:34.064Z,48.80
2022-11-04T21:39:16.265Z,53.50
2022-11-04T21:42:35.335Z,57.90
2022-11-04T21:45:31.366Z,57.40
2022-11-04T21:48:23.513Z,58.10
2022-11-04T21:51:19.530Z,58.60
2022-11-04T21:54:04.075Z,58.40
2022-11-04T21:56:42.192Z,59.50
2022-11-04T21:59:32.992Z,60.40
2022-11-04T22:02:16.318Z,57.10
2022-11-04T22:05:25.262Z,55.00
2022-11-04T22:08:22.545Z,54.00
2022-11-04T22:11:06.572Z,60.20
2022-11-04T22:13:36.668Z,61.00
2022-11-04T22:16:21.830Z,57.70
2022-11-04T22:21:28.160Z,49.10
2022-11-04T22:23:57.637Z,48.70
2022-11-04T22:26:32.167Z,48.80
2022-11-04T22:29:11.350Z,46.70
2022-11-04T22:31:42.992Z,48.00
2022-11-04T22:34:12.737Z,49.80
2022-11-04T22:36:40.806Z,51.00
2022-11-04T22:39:16.354Z,49.30
2022-11-04T22:41:48.356Z,47.10
2022-11-04T22:44:19.954Z,47.50
2022-11-04T22:46:54.804Z,51.50
2022-11-04T22:49:30.101Z,47.30
2022-11-04T22:52:00.849Z,48.10
2022-11-04T22:54:31.676Z,48.20
2022-11-04T22:57:01.671Z,46.50
2022-11-04T22:59:31.639Z,47.20
2022-11-04T23:02:01.452Z,47.80
2022-11-04T23:04:30.970Z,48.90
2022-11-04T23:07:00.471Z,50.40
2022-11-04T23:09:30.114Z,54.00
2022-11-04T23:12:18.449Z,50.40
2022-11-04T23:15:06.659Z,49.20
2022-11-04T23:17:55.128Z,53.30
2022-11-04T23:20:31.278Z,51.00
2022-11-04T23:23:19.427Z,50.60
2022-11-04T23:25:50.554Z,51.30
2022-11-04T23:28:39.119Z,51.40
2022-11-04T23:31:11.655Z,51.10
2022-11-04T23:34:00.945Z,54.30
2022-11-04T23:36:55.351Z,53.60
2022-11-04T23:39:25.061Z,46.20
2022-11-04T23:42:13.560Z,51.60
2022-11-04T23:45:02.567Z,50.60
2022-11-04T23:48:01.143Z,52.40
2022-11-04T23:50:52.975Z,59.60
2022-11-04T23:53:41.032Z,57.20
2022-11-04T23:56:30.906Z,56.10
2022-11-04T23:59:20.055Z,63.20
